PWSweather.com
Personal Weather Stations
Station Observations
IGLOUCES43
GloucesterGB GL2 4YT

GloucesterGB GL2 4YT

Lat: 51.8239925, Lon: -2.2837441000000354

Elevation: 57

Station Type: Davis Vantage Pro2

Latest ConditionsUpdated 6:15:00 PM GMT Tuesday, Sep 18, 2018
Currently Today's Max Today's Min Today's Average
Temperature 67.3°F19.6°C 69.5°F20.8°C 61.4°F16.3°C 65.4°F18.6°C
Dew Point 59.1°F15.1°C 60.9°F16.1°C 55.7°F13.2°C 59.1°F15.1°C
Winds 9.4 mph S15.1 kmh S 21.2 mph -34.1 kmh - - 13.2 mph 21.2 kmh
Wind Gusts 17.0 mph27.4 kmh 37.0 mph59.5 kmh - -
Humidity 75% 90% 73% 80%
Pressure 29.82 in1009.8 mb 29.83 in1010.2 mb 29.56 in1001.0 mb -
Precipitation - 0.01 in0.3 mm - -
Hour Temp Dew Point Humidity Winds Wind Gusts Pressure Precip Precip Rate Daily Precip Total
06:15 PM 67.3°F19.6°C 59.1°F15.1°C 75% 9.4 mph S15.1 kmh S 17.0 mph27.4 kmh 29.82 in1009.8 mb 0.00 in0.0 mm 0.00 in0.0 mm 0.01 in0.3 mm
06:10 PM 67.4°F19.7°C 59.2°F15.1°C 75% 8.3 mph S13.4 kmh S 16.0 mph25.7 kmh 29.82 in1009.8 mb 0.00 in0.0 mm 0.00 in0.0 mm 0.01 in0.3 mm
06:05 PM 67.6°F19.8°C 59.4°F15.2°C 75% 7.1 mph S11.4 kmh S 16.0 mph25.7 kmh 29.82 in1009.8 mb 0.00 in0.0 mm 0.00 in0.0 mm 0.01 in0.3 mm
06:00 PM 67.6°F19.8°C 59.4°F15.2°C 75% 7.1 mph S11.4 kmh S 13.0 mph20.9 kmh 29.82 in1009.8 mb 0.00 in0.0 mm 0.00 in0.0 mm 0.01 in0.3 mm
05:55 PM 67.6°F19.8°C 59.8°F15.4°C 76% 7.1 mph S11.4 kmh S 13.0 mph20.9 kmh 29.82 in1009.8 mb 0.00 in0.0 mm 0.00 in0.0 mm 0.01 in0.3 mm
05:50 PM 67.5°F19.7°C 60.0°F15.6°C 77% 4.7 mph S7.6 kmh S 13.0 mph20.9 kmh 29.82 in1009.8 mb 0.00 in0.0 mm 0.00 in0.0 mm 0.01 in0.3 mm
05:45 PM 67.4°F19.7°C 60.3°F15.7°C 78% 3.5 mph S5.6 kmh S 10.0 mph16.1 kmh 29.82 in1009.8 mb 0.00 in0.0 mm 0.00 in0.0 mm 0.01 in0.3 mm
05:40 PM 67.5°F19.7°C 60.4°F15.8°C 78% 3.5 mph S5.6 kmh S 9.0 mph14.5 kmh 29.82 in1009.8 mb 0.00 in0.0 mm 0.00 in0.0 mm 0.01 in0.3 mm
05:35 PM 67.6°F19.8°C 60.5°F15.8°C 78% 4.7 mph S7.6 kmh S 9.0 mph14.5 kmh 29.81 in1009.5 mb 0.00 in0.0 mm 0.00 in0.0 mm 0.01 in0.3 mm
05:30 PM 67.6°F19.8°C 60.5°F15.8°C 78% 5.9 mph S9.5 kmh S 12.0 mph19.3 kmh 29.82 in1009.8 mb 0.00 in0.0 mm 0.00 in0.0 mm 0.01 in0.3 mm
05:25 PM 67.7°F19.8°C 60.6°F15.9°C 78% 5.9 mph S9.5 kmh S 14.0 mph22.5 kmh 29.82 in1009.8 mb 0.00 in0.0 mm 0.00 in0.0 mm 0.01 in0.3 mm
05:20 PM 67.9°F19.9°C 60.4°F15.8°C 77% 5.9 mph S9.5 kmh S 14.0 mph22.5 kmh 29.82 in1009.8 mb 0.00 in0.0 mm 0.00 in0.0 mm 0.01 in0.3 mm
05:15 PM 68.1°F20.1°C 60.6°F15.9°C 77% 7.1 mph S11.4 kmh S 13.0 mph20.9 kmh 29.82 in1009.8 mb 0.00 in0.0 mm 0.00 in0.0 mm 0.01 in0.3 mm
05:10 PM 68.3°F20.2°C 60.4°F15.8°C 76% 8.3 mph S13.4 kmh S 18.0 mph29.0 kmh 29.82 in1009.8 mb 0.00 in0.0 mm 0.00 in0.0 mm 0.01 in0.3 mm
05:05 PM 68.4°F20.2°C 60.2°F15.7°C 75% 8.3 mph SSW13.4 kmh SSW 18.0 mph29.0 kmh 29.82 in1009.8 mb 0.00 in0.0 mm 0.00 in0.0 mm 0.01 in0.3 mm
05:00 PM 68.5°F20.3°C 60.3°F15.7°C 75% 9.4 mph SSW15.1 kmh SSW 16.0 mph25.7 kmh 29.82 in1009.8 mb 0.00 in0.0 mm 0.00 in0.0 mm 0.01 in0.3 mm
04:55 PM 68.5°F20.3°C 60.3°F15.7°C 75% 10.6 mph SSW17.1 kmh SSW 16.0 mph25.7 kmh 29.82 in1009.8 mb 0.00 in0.0 mm 0.00 in0.0 mm 0.01 in0.3 mm
04:50 PM 68.7°F20.4°C 60.1°F15.6°C 74% 9.4 mph SSW15.1 kmh SSW 16.0 mph25.7 kmh 29.82 in1009.8 mb 0.00 in0.0 mm 0.00 in0.0 mm 0.01 in0.3 mm
04:45 PM 68.7°F20.4°C 60.1°F15.6°C 74% 11.8 mph SSW19.0 kmh SSW 21.0 mph33.8 kmh 29.82 in1009.8 mb 0.00 in0.0 mm 0.00 in0.0 mm 0.01 in0.3 mm
04:40 PM 68.6°F20.3°C 60.0°F15.6°C 74% 11.8 mph SSW19.0 kmh SSW 21.0 mph33.8 kmh 29.82 in1009.8 mb 0.00 in0.0 mm 0.00 in0.0 mm 0.01 in0.3 mm
04:35 PM 68.7°F20.4°C 60.1°F15.6°C 74% 10.6 mph SSW17.1 kmh SSW 21.0 mph33.8 kmh 29.83 in1010.2 mb 0.00 in0.0 mm 0.00 in0.0 mm 0.01 in0.3 mm
04:30 PM 68.6°F20.3°C 60.0°F15.6°C 74% 10.6 mph SSW17.1 kmh SSW 19.0 mph30.6 kmh 29.82 in1009.8 mb 0.00 in0.0 mm 0.00 in0.0 mm 0.01 in0.3 mm
04:25 PM 68.9°F20.5°C 60.3°F15.7°C 74% 10.6 mph SSW17.1 kmh SSW 19.0 mph30.6 kmh 29.82 in1009.8 mb 0.00 in0.0 mm 0.00 in0.0 mm 0.01 in0.3 mm
04:20 PM 68.9°F20.5°C 60.3°F15.7°C 74% 10.6 mph SSW17.1 kmh SSW 19.0 mph30.6 kmh 29.82 in1009.8 mb 0.00 in0.0 mm 0.00 in0.0 mm 0.01 in0.3 mm
04:15 PM 69.2°F20.7°C 60.6°F15.9°C 74% 11.8 mph SSW19.0 kmh SSW 21.0 mph33.8 kmh 29.82 in1009.8 mb 0.00 in0.0 mm 0.00 in0.0 mm 0.01 in0.3 mm
04:10 PM 69.1°F20.6°C 60.5°F15.8°C 74% 14.2 mph SSW22.9 kmh SSW 23.0 mph37.0 kmh 29.82 in1009.8 mb 0.00 in0.0 mm 0.00 in0.0 mm 0.01 in0.3 mm
04:05 PM 68.9°F20.5°C 60.3°F15.7°C 74% 15.3 mph SSW24.6 kmh SSW 23.0 mph37.0 kmh 29.82 in1009.8 mb 0.00 in0.0 mm 0.00 in0.0 mm 0.01 in0.3 mm
04:00 PM 69.2°F20.7°C 60.2°F15.7°C 73% 14.2 mph SSW22.9 kmh SSW 21.0 mph33.8 kmh 29.82 in1009.8 mb 0.00 in0.0 mm 0.00 in0.0 mm 0.01 in0.3 mm
03:55 PM 69.2°F20.7°C 60.6°F15.9°C 74% 13.0 mph SSW20.9 kmh SSW 21.0 mph33.8 kmh 29.82 in1009.8 mb 0.00 in0.0 mm 0.00 in0.0 mm 0.01 in0.3 mm
03:50 PM 69.4°F20.8°C 60.8°F16.0°C 74% 14.2 mph SSW22.9 kmh SSW 22.0 mph35.4 kmh 29.82 in1009.8 mb 0.00 in0.0 mm 0.00 in0.0 mm 0.01 in0.3 mm
03:45 PM 69.3°F20.7°C 60.7°F15.9°C 74% 14.2 mph SSW22.9 kmh SSW 23.0 mph37.0 kmh 29.82 in1009.8 mb 0.00 in0.0 mm 0.00 in0.0 mm 0.01 in0.3 mm
03:40 PM 69.5°F20.8°C 60.8°F16.0°C 74% 13.0 mph SSW20.9 kmh SSW 23.0 mph37.0 kmh 29.82 in1009.8 mb 0.00 in0.0 mm 0.00 in0.0 mm 0.01 in0.3 mm
03:35 PM 69.4°F20.8°C 60.8°F16.0°C 74% 11.8 mph SSW19.0 kmh SSW 21.0 mph33.8 kmh 29.82 in1009.8 mb 0.00 in0.0 mm 0.00 in0.0 mm 0.01 in0.3 mm
03:30 PM 69.5°F20.8°C 60.8°F16.0°C 74% 11.8 mph SSW19.0 kmh SSW 22.0 mph35.4 kmh 29.82 in1009.8 mb 0.00 in0.0 mm 0.00 in0.0 mm 0.01 in0.3 mm
03:25 PM 68.8°F20.4°C 60.9°F16.1°C 76% 11.8 mph SSW19.0 kmh SSW 22.0 mph35.4 kmh 29.82 in1009.8 mb 0.00 in0.0 mm 0.00 in0.0 mm 0.01 in0.3 mm
03:20 PM 68.2°F20.1°C 60.7°F15.9°C 77% 11.8 mph SSW19.0 kmh SSW 22.0 mph35.4 kmh 29.82 in1009.8 mb 0.00 in0.0 mm 0.00 in0.0 mm 0.01 in0.3 mm
03:15 PM 68.2°F20.1°C 60.7°F15.9°C 77% 13.0 mph SSW20.9 kmh SSW 22.0 mph35.4 kmh 29.82 in1009.8 mb 0.00 in0.0 mm 0.00 in0.0 mm 0.01 in0.3 mm
03:10 PM 68.1°F20.1°C 60.6°F15.9°C 77% 14.2 mph SSW22.9 kmh SSW 22.0 mph35.4 kmh 29.82 in1009.8 mb 0.00 in0.0 mm 0.00 in0.0 mm 0.01 in0.3 mm
03:05 PM 68.3°F20.2°C 60.4°F15.8°C 76% 13.0 mph SSW20.9 kmh SSW 23.0 mph37.0 kmh 29.82 in1009.8 mb 0.00 in0.0 mm 0.00 in0.0 mm 0.01 in0.3 mm
03:00 PM 68.6°F20.3°C 60.7°F15.9°C 76% 11.8 mph SSW19.0 kmh SSW 23.0 mph37.0 kmh 29.82 in1009.8 mb 0.00 in0.0 mm 0.00 in0.0 mm 0.01 in0.3 mm
02:55 PM 68.2°F20.1°C 60.7°F15.9°C 77% 13.0 mph SSW20.9 kmh SSW 24.0 mph38.6 kmh 29.82 in1009.8 mb 0.00 in0.0 mm 0.00 in0.0 mm 0.01 in0.3 mm
02:50 PM 68.0°F20.0°C 60.5°F15.8°C 77% 14.2 mph SSW22.9 kmh SSW 24.0 mph38.6 kmh 29.82 in1009.8 mb 0.00 in0.0 mm 0.00 in0.0 mm 0.01 in0.3 mm
02:45 PM 67.6°F19.8°C 60.1°F15.6°C 77% 14.2 mph SSW22.9 kmh SSW 21.0 mph33.8 kmh 29.82 in1009.8 mb 0.00 in0.0 mm 0.00 in0.0 mm 0.01 in0.3 mm
02:40 PM 67.6°F19.8°C 60.5°F15.8°C 78% 14.2 mph SSW22.9 kmh SSW 22.0 mph35.4 kmh 29.82 in1009.8 mb 0.00 in0.0 mm 0.00 in0.0 mm 0.01 in0.3 mm
02:35 PM 67.3°F19.6°C 60.2°F15.7°C 78% 14.2 mph SSW22.9 kmh SSW 22.0 mph35.4 kmh 29.82 in1009.8 mb 0.00 in0.0 mm 0.00 in0.0 mm 0.01 in0.3 mm
02:30 PM 67.1°F19.5°C 60.0°F15.6°C 78% 13.0 mph SSW20.9 kmh SSW 20.0 mph32.2 kmh 29.82 in1009.8 mb 0.00 in0.0 mm 0.00 in0.0 mm 0.01 in0.3 mm
02:25 PM 66.9°F19.4°C 60.2°F15.7°C 79% 13.0 mph SSW20.9 kmh SSW 22.0 mph35.4 kmh 29.82 in1009.8 mb 0.00 in0.0 mm 0.00 in0.0 mm 0.01 in0.3 mm
02:20 PM 66.8°F19.3°C 60.1°F15.6°C 79% 11.8 mph SSW19.0 kmh SSW 22.0 mph35.4 kmh 29.82 in1009.8 mb 0.00 in0.0 mm 0.00 in0.0 mm 0.01 in0.3 mm
02:15 PM 66.9°F19.4°C 60.2°F15.7°C 79% 11.8 mph SSW19.0 kmh SSW 20.0 mph32.2 kmh 29.82 in1009.8 mb 0.00 in0.0 mm 0.00 in0.0 mm 0.01 in0.3 mm
02:10 PM 66.9°F19.4°C 60.2°F15.7°C 79% 13.0 mph SSW20.9 kmh SSW 20.0 mph32.2 kmh 29.82 in1009.8 mb 0.00 in0.0 mm 0.00 in0.0 mm 0.01 in0.3 mm
02:05 PM 67.0°F19.4°C 60.3°F15.7°C 79% 14.2 mph SSW22.9 kmh SSW 19.0 mph30.6 kmh 29.82 in1009.8 mb 0.00 in0.0 mm 0.00 in0.0 mm 0.01 in0.3 mm
02:00 PM 66.8°F19.3°C 60.1°F15.6°C 79% 13.0 mph SSW20.9 kmh SSW 19.0 mph30.6 kmh 29.82 in1009.8 mb 0.00 in0.0 mm 0.00 in0.0 mm 0.01 in0.3 mm
01:55 PM 66.3°F19.1°C 59.9°F15.5°C 80% 11.8 mph SSW19.0 kmh SSW 19.0 mph30.6 kmh 29.82 in1009.8 mb 0.00 in0.0 mm 0.00 in0.0 mm 0.01 in0.3 mm
01:50 PM 66.0°F18.9°C 60.0°F15.6°C 81% 11.8 mph SSW19.0 kmh SSW 20.0 mph32.2 kmh 29.82 in1009.8 mb 0.00 in0.0 mm 0.00 in0.0 mm 0.01 in0.3 mm
01:45 PM 66.0°F18.9°C 60.0°F15.6°C 81% 13.0 mph SW20.9 kmh SW 21.0 mph33.8 kmh 29.82 in1009.8 mb 0.00 in0.0 mm 0.00 in0.0 mm 0.01 in0.3 mm
01:40 PM 66.2°F19.0°C 59.8°F15.4°C 80% 11.8 mph SW19.0 kmh SW 21.0 mph33.8 kmh 29.82 in1009.8 mb 0.00 in0.0 mm 0.00 in0.0 mm 0.01 in0.3 mm
01:35 PM 66.3°F19.1°C 59.6°F15.3°C 79% 10.6 mph SW17.1 kmh SW 16.0 mph25.7 kmh 29.81 in1009.5 mb 0.00 in0.0 mm 0.00 in0.0 mm 0.01 in0.3 mm
01:30 PM 66.3°F19.1°C 59.6°F15.3°C 79% 10.6 mph SW17.1 kmh SW 20.0 mph32.2 kmh 29.81 in1009.5 mb 0.00 in0.0 mm 0.00 in0.0 mm 0.01 in0.3 mm
01:25 PM 66.2°F19.0°C 59.5°F15.3°C 79% 10.6 mph SSW17.1 kmh SSW 20.0 mph32.2 kmh 29.81 in1009.5 mb 0.00 in0.0 mm 0.00 in0.0 mm 0.01 in0.3 mm
01:20 PM 66.1°F18.9°C 59.7°F15.4°C 80% 11.8 mph SSW19.0 kmh SSW 19.0 mph30.6 kmh 29.81 in1009.5 mb 0.00 in0.0 mm 0.00 in0.0 mm 0.01 in0.3 mm
01:15 PM 65.9°F18.8°C 59.6°F15.3°C 80% 13.0 mph SSW20.9 kmh SSW 20.0 mph32.2 kmh 29.81 in1009.5 mb 0.00 in0.0 mm 0.00 in0.0 mm 0.01 in0.3 mm
01:10 PM 65.7°F18.7°C 59.4°F15.2°C 80% 14.2 mph SW22.9 kmh SW 26.0 mph41.8 kmh 29.81 in1009.5 mb 0.00 in0.0 mm 0.00 in0.0 mm 0.01 in0.3 mm
01:05 PM 65.6°F18.7°C 59.6°F15.3°C 81% 14.2 mph SW22.9 kmh SW 26.0 mph41.8 kmh 29.81 in1009.5 mb 0.00 in0.0 mm 0.00 in0.0 mm 0.01 in0.3 mm
01:00 PM 65.8°F18.8°C 59.5°F15.3°C 80% 14.2 mph SW22.9 kmh SW 23.0 mph37.0 kmh 29.81 in1009.5 mb 0.00 in0.0 mm 0.00 in0.0 mm 0.01 in0.3 mm
12:55 PM 65.8°F18.8°C 59.1°F15.1°C 79% 14.2 mph SW22.9 kmh SW 25.0 mph40.2 kmh 29.81 in1009.5 mb 0.00 in0.0 mm 0.00 in0.0 mm 0.01 in0.3 mm
12:50 PM 65.8°F18.8°C 59.1°F15.1°C 79% 14.2 mph SW22.9 kmh SW 25.0 mph40.2 kmh 29.81 in1009.5 mb 0.00 in0.0 mm 0.00 in0.0 mm 0.01 in0.3 mm
12:45 PM 65.8°F18.8°C 58.7°F14.8°C 78% 14.2 mph SW22.9 kmh SW 24.0 mph38.6 kmh 29.80 in1009.1 mb 0.00 in0.0 mm 0.00 in0.0 mm 0.01 in0.3 mm
12:40 PM 65.9°F18.8°C 58.8°F14.9°C 78% 14.2 mph SSW22.9 kmh SSW 23.0 mph37.0 kmh 29.80 in1009.1 mb 0.00 in0.0 mm 0.00 in0.0 mm 0.01 in0.3 mm
12:35 PM 65.9°F18.8°C 58.5°F14.7°C 77% 13.0 mph SSW20.9 kmh SSW 23.0 mph37.0 kmh 29.80 in1009.1 mb 0.00 in0.0 mm 0.00 in0.0 mm 0.01 in0.3 mm
12:30 PM 65.9°F18.8°C 58.5°F14.7°C 77% 13.0 mph SSW20.9 kmh SSW 21.0 mph33.8 kmh 29.80 in1009.1 mb 0.00 in0.0 mm 0.00 in0.0 mm 0.01 in0.3 mm
12:25 PM 65.9°F18.8°C 58.5°F14.7°C 77% 11.8 mph SSW19.0 kmh SSW 21.0 mph33.8 kmh 29.80 in1009.1 mb 0.00 in0.0 mm 0.00 in0.0 mm 0.01 in0.3 mm
12:20 PM 66.1°F18.9°C 59.0°F15.0°C 78% 13.0 mph SSW20.9 kmh SSW 23.0 mph37.0 kmh 29.80 in1009.1 mb 0.00 in0.0 mm 0.00 in0.0 mm 0.01 in0.3 mm
12:15 PM 66.1°F18.9°C 59.0°F15.0°C 78% 14.2 mph SSW22.9 kmh SSW 23.0 mph37.0 kmh 29.80 in1009.1 mb 0.00 in0.0 mm 0.00 in0.0 mm 0.01 in0.3 mm
12:10 PM 66.3°F19.1°C 59.2°F15.1°C 78% 14.2 mph SSW22.9 kmh SSW 23.0 mph37.0 kmh 29.80 in1009.1 mb 0.00 in0.0 mm 0.00 in0.0 mm 0.01 in0.3 mm
12:05 PM 65.9°F18.8°C 59.2°F15.1°C 79% 14.2 mph SSW22.9 kmh SSW 22.0 mph35.4 kmh 29.80 in1009.1 mb 0.00 in0.0 mm 0.00 in0.0 mm 0.01 in0.3 mm
12:00 PM 65.9°F18.8°C 58.8°F14.9°C 78% 14.2 mph SSW22.9 kmh SSW 23.0 mph37.0 kmh 29.80 in1009.1 mb 0.00 in0.0 mm 0.00 in0.0 mm 0.01 in0.3 mm
11:55 AM 65.9°F18.8°C 58.5°F14.7°C 77% 11.8 mph SW19.0 kmh SW 24.0 mph38.6 kmh 29.80 in1009.1 mb 0.00 in0.0 mm 0.00 in0.0 mm 0.01 in0.3 mm
11:50 AM 65.9°F18.8°C 58.5°F14.7°C 77% 11.8 mph SW19.0 kmh SW 24.0 mph38.6 kmh 29.80 in1009.1 mb 0.00 in0.0 mm 0.00 in0.0 mm 0.01 in0.3 mm
11:45 AM 65.7°F18.7°C 58.3°F14.6°C 77% 10.6 mph SW17.1 kmh SW 17.0 mph27.4 kmh 29.80 in1009.1 mb 0.00 in0.0 mm 0.00 in0.0 mm 0.01 in0.3 mm
11:40 AM 65.5°F18.6°C 58.1°F14.5°C 77% 13.0 mph SW20.9 kmh SW 19.0 mph30.6 kmh 29.79 in1008.8 mb 0.00 in0.0 mm 0.00 in0.0 mm 0.01 in0.3 mm
11:35 AM 65.4°F18.6°C 58.0°F14.4°C 77% 14.2 mph SSW22.9 kmh SSW 22.0 mph35.4 kmh 29.79 in1008.8 mb 0.00 in0.0 mm 0.00 in0.0 mm 0.01 in0.3 mm
11:30 AM 65.4°F18.6°C 57.6°F14.2°C 76% 14.2 mph SSW22.9 kmh SSW 22.0 mph35.4 kmh 29.79 in1008.8 mb 0.00 in0.0 mm 0.00 in0.0 mm 0.01 in0.3 mm
11:25 AM 65.4°F18.6°C 58.0°F14.4°C 77% 14.2 mph SSW22.9 kmh SSW 21.0 mph33.8 kmh 29.79 in1008.8 mb 0.00 in0.0 mm 0.00 in0.0 mm 0.01 in0.3 mm
11:20 AM 65.2°F18.4°C 58.2°F14.6°C 78% 13.0 mph SSW20.9 kmh SSW 23.0 mph37.0 kmh 29.79 in1008.8 mb 0.00 in0.0 mm 0.00 in0.0 mm 0.01 in0.3 mm
11:15 AM 64.8°F18.2°C 57.8°F14.3°C 78% 14.2 mph SSW22.9 kmh SSW 23.0 mph37.0 kmh 29.79 in1008.8 mb 0.00 in0.0 mm 0.00 in0.0 mm 0.01 in0.3 mm
11:10 AM 64.9°F18.3°C 57.9°F14.4°C 78% 15.3 mph SSW24.6 kmh SSW 26.0 mph41.8 kmh 29.78 in1008.5 mb 0.00 in0.0 mm 0.00 in0.0 mm 0.01 in0.3 mm
11:05 AM 65.0°F18.3°C 58.0°F14.4°C 78% 16.5 mph SSW26.6 kmh SSW 26.0 mph41.8 kmh 29.78 in1008.5 mb 0.00 in0.0 mm 0.00 in0.0 mm 0.01 in0.3 mm
11:00 AM 65.3°F18.5°C 57.5°F14.2°C 76% 16.5 mph SSW26.6 kmh SSW 25.0 mph40.2 kmh 29.78 in1008.5 mb 0.00 in0.0 mm 0.00 in0.0 mm 0.01 in0.3 mm
10:55 AM 65.2°F18.4°C 57.4°F14.1°C 76% 16.5 mph SSW26.6 kmh SSW 26.0 mph41.8 kmh 29.77 in1008.1 mb 0.00 in0.0 mm 0.00 in0.0 mm 0.01 in0.3 mm
10:50 AM 65.3°F18.5°C 57.5°F14.2°C 76% 16.5 mph SSW26.6 kmh SSW 26.0 mph41.8 kmh 29.76 in1007.8 mb 0.00 in0.0 mm 0.00 in0.0 mm 0.01 in0.3 mm
10:45 AM 65.2°F18.4°C 57.1°F13.9°C 75% 17.7 mph SSW28.5 kmh SSW 29.0 mph46.7 kmh 29.77 in1008.1 mb 0.00 in0.0 mm 0.00 in0.0 mm 0.01 in0.3 mm
10:40 AM 65.5°F18.6°C 57.0°F13.9°C 74% 16.5 mph SSW26.6 kmh SSW 29.0 mph46.7 kmh 29.76 in1007.8 mb 0.00 in0.0 mm 0.00 in0.0 mm 0.01 in0.3 mm
10:35 AM 65.4°F18.6°C 56.9°F13.8°C 74% 16.5 mph SSW26.6 kmh SSW 27.0 mph43.5 kmh 29.76 in1007.8 mb 0.00 in0.0 mm 0.00 in0.0 mm 0.01 in0.3 mm
10:30 AM 65.0°F18.3°C 56.5°F13.6°C 74% 17.7 mph SSW28.5 kmh SSW 27.0 mph43.5 kmh 29.75 in1007.5 mb 0.00 in0.0 mm 0.00 in0.0 mm 0.01 in0.3 mm
10:25 AM 64.9°F18.3°C 56.4°F13.6°C 74% 16.5 mph SSW26.6 kmh SSW 26.0 mph41.8 kmh 29.75 in1007.5 mb 0.00 in0.0 mm 0.00 in0.0 mm 0.01 in0.3 mm
10:20 AM 64.9°F18.3°C 56.4°F13.6°C 74% 16.5 mph SSW26.6 kmh SSW 29.0 mph46.7 kmh 29.75 in1007.5 mb 0.00 in0.0 mm 0.00 in0.0 mm 0.01 in0.3 mm
10:15 AM 64.7°F18.2°C 56.2°F13.4°C 74% 17.7 mph SSW28.5 kmh SSW 29.0 mph46.7 kmh 29.75 in1007.5 mb 0.00 in0.0 mm 0.00 in0.0 mm 0.01 in0.3 mm
10:10 AM 64.5°F18.1°C 56.0°F13.3°C 74% 18.9 mph SW30.4 kmh SW 27.0 mph43.5 kmh 29.75 in1007.5 mb 0.00 in0.0 mm 0.00 in0.0 mm 0.01 in0.3 mm
10:05 AM 64.5°F18.1°C 56.0°F13.3°C 74% 18.9 mph SSW30.4 kmh SSW 28.0 mph45.1 kmh 29.75 in1007.5 mb 0.00 in0.0 mm 0.00 in0.0 mm 0.01 in0.3 mm
10:00 AM 64.6°F18.1°C 55.7°F13.2°C 73% 18.9 mph SSW30.4 kmh SSW 28.0 mph45.1 kmh 29.75 in1007.5 mb 0.00 in0.0 mm 0.00 in0.0 mm 0.01 in0.3 mm
09:55 AM 64.8°F18.2°C 55.9°F13.3°C 73% 16.5 mph SSW26.6 kmh SSW 29.0 mph46.7 kmh 29.75 in1007.5 mb 0.00 in0.0 mm 0.00 in0.0 mm 0.01 in0.3 mm
09:50 AM 64.8°F18.2°C 56.3°F13.5°C 74% 13.0 mph SSW20.9 kmh SSW 29.0 mph46.7 kmh 29.75 in1007.5 mb 0.00 in0.0 mm 0.00 in0.0 mm 0.01 in0.3 mm
09:45 AM 64.4°F18.0°C 57.0°F13.9°C 77% 13.0 mph SSW20.9 kmh SSW 25.0 mph40.2 kmh 29.74 in1007.1 mb 0.00 in0.0 mm 0.00 in0.0 mm 0.01 in0.3 mm
09:40 AM 63.9°F17.7°C 56.9°F13.8°C 78% 14.2 mph SSW22.9 kmh SSW 26.0 mph41.8 kmh 29.74 in1007.1 mb 0.00 in0.0 mm 0.00 in0.0 mm 0.01 in0.3 mm
09:35 AM 63.7°F17.6°C 56.7°F13.7°C 78% 14.2 mph SW22.9 kmh SW 26.0 mph41.8 kmh 29.74 in1007.1 mb 0.00 in0.0 mm 0.00 in0.0 mm 0.01 in0.3 mm
09:30 AM 63.5°F17.5°C 56.5°F13.6°C 78% 14.2 mph SW22.9 kmh SW 22.0 mph35.4 kmh 29.73 in1006.8 mb 0.00 in0.0 mm 0.00 in0.0 mm 0.01 in0.3 mm
09:25 AM 63.4°F17.4°C 56.4°F13.6°C 78% 13.0 mph SW20.9 kmh SW 20.0 mph32.2 kmh 29.73 in1006.8 mb 0.00 in0.0 mm 0.00 in0.0 mm 0.01 in0.3 mm
09:20 AM 63.3°F17.4°C 56.7°F13.7°C 79% 9.4 mph SW15.1 kmh SW 20.0 mph32.2 kmh 29.73 in1006.8 mb 0.00 in0.0 mm 0.00 in0.0 mm 0.01 in0.3 mm
09:15 AM 63.3°F17.4°C 57.0°F13.9°C 80% 11.8 mph SW19.0 kmh SW 22.0 mph35.4 kmh 29.72 in1006.4 mb 0.00 in0.0 mm 0.00 in0.0 mm 0.01 in0.3 mm
09:10 AM 63.2°F17.3°C 56.9°F13.8°C 80% 14.2 mph SSW22.9 kmh SSW 27.0 mph43.5 kmh 29.72 in1006.4 mb 0.00 in0.0 mm 0.00 in0.0 mm 0.01 in0.3 mm
09:05 AM 63.2°F17.3°C 56.9°F13.8°C 80% 11.8 mph SSW19.0 kmh SSW 27.0 mph43.5 kmh 29.72 in1006.4 mb 0.00 in0.0 mm 0.00 in0.0 mm 0.01 in0.3 mm
09:00 AM 63.1°F17.3°C 56.8°F13.8°C 80% 13.0 mph SW20.9 kmh SW 26.0 mph41.8 kmh 29.71 in1006.1 mb 0.00 in0.0 mm 0.00 in0.0 mm 0.01 in0.3 mm
08:55 AM 63.0°F17.2°C 57.1°F13.9°C 81% 15.3 mph SSW24.6 kmh SSW 26.0 mph41.8 kmh 29.71 in1006.1 mb 0.00 in0.0 mm 0.00 in0.0 mm 0.01 in0.3 mm
08:50 AM 63.0°F17.2°C 56.7°F13.7°C 80% 17.7 mph SSW28.5 kmh SSW 35.0 mph56.3 kmh 29.70 in1005.8 mb 0.00 in0.0 mm 0.00 in0.0 mm 0.01 in0.3 mm
08:45 AM 62.8°F17.1°C 56.5°F13.6°C 80% 20.1 mph SSW32.3 kmh SSW 35.0 mph56.3 kmh 29.70 in1005.8 mb 0.00 in0.0 mm 0.00 in0.0 mm 0.01 in0.3 mm
08:40 AM 62.5°F16.9°C 56.6°F13.7°C 81% 20.1 mph SSW32.3 kmh SSW 27.0 mph43.5 kmh 29.70 in1005.8 mb 0.00 in0.0 mm 0.00 in0.0 mm 0.01 in0.3 mm
08:35 AM 62.5°F16.9°C 56.6°F13.7°C 81% 20.1 mph SSW32.3 kmh SSW 30.0 mph48.3 kmh 29.69 in1005.4 mb 0.00 in0.0 mm 0.00 in0.0 mm 0.01 in0.3 mm
08:30 AM 62.5°F16.9°C 56.9°F13.8°C 82% 18.9 mph SSW30.4 kmh SSW 30.0 mph48.3 kmh 29.69 in1005.4 mb 0.00 in0.0 mm 0.00 in0.0 mm 0.01 in0.3 mm
08:25 AM 62.2°F16.8°C 57.3°F14.1°C 84% 18.9 mph SSW30.4 kmh SSW 29.0 mph46.7 kmh 29.68 in1005.1 mb 0.00 in0.0 mm 0.00 in0.0 mm 0.01 in0.3 mm
08:20 AM 62.0°F16.7°C 57.1°F13.9°C 84% 20.1 mph SSW32.3 kmh SSW 29.0 mph46.7 kmh 29.68 in1005.1 mb 0.00 in0.0 mm 0.00 in0.0 mm 0.01 in0.3 mm
08:15 AM 61.8°F16.6°C 57.2°F14.0°C 85% 20.1 mph SSW32.3 kmh SSW 37.0 mph59.5 kmh 29.68 in1005.1 mb 0.00 in0.0 mm 0.00 in0.0 mm 0.01 in0.3 mm
08:10 AM 61.6°F16.4°C 57.0°F13.9°C 85% 20.1 mph SSW32.3 kmh SSW 37.0 mph59.5 kmh 29.68 in1005.1 mb 0.00 in0.0 mm 0.00 in0.0 mm 0.01 in0.3 mm
08:05 AM 61.4°F16.3°C 57.2°F14.0°C 86% 18.9 mph SSW30.4 kmh SSW 31.0 mph49.9 kmh 29.68 in1005.1 mb 0.00 in0.0 mm 0.00 in0.0 mm 0.01 in0.3 mm
08:00 AM 61.4°F16.3°C 57.5°F14.2°C 87% 17.7 mph SSW28.5 kmh SSW 37.0 mph59.5 kmh 29.68 in1005.1 mb 0.00 in0.0 mm 0.00 in0.0 mm 0.01 in0.3 mm
07:55 AM 61.5°F16.4°C 57.9°F14.4°C 88% 17.7 mph SSW28.5 kmh SSW 37.0 mph59.5 kmh 29.67 in1004.7 mb 0.00 in0.0 mm 0.00 in0.0 mm 0.01 in0.3 mm
07:50 AM 61.6°F16.4°C 57.7°F14.3°C 87% 17.7 mph SSW28.5 kmh SSW 27.0 mph43.5 kmh 29.67 in1004.7 mb 0.00 in0.0 mm 0.00 in0.0 mm 0.01 in0.3 mm
07:45 AM 61.7°F16.5°C 57.8°F14.3°C 87% 18.9 mph SSW30.4 kmh SSW 30.0 mph48.3 kmh 29.68 in1005.1 mb 0.00 in0.0 mm 0.00 in0.0 mm 0.01 in0.3 mm
07:40 AM 61.6°F16.4°C 58.0°F14.4°C 88% 16.5 mph SSW26.6 kmh SSW 30.0 mph48.3 kmh 29.67 in1004.7 mb 0.01 in0.3 mm 0.00 in0.0 mm 0.01 in0.3 mm
07:35 AM 61.6°F16.4°C 58.0°F14.4°C 88% 15.3 mph SSW24.6 kmh SSW 30.0 mph48.3 kmh 29.67 in1004.7 mb 0.01 in0.3 mm 0.00 in0.0 mm 0.01 in0.3 mm
07:30 AM 61.5°F16.4°C 58.2°F14.6°C 89% 16.5 mph SSW26.6 kmh SSW 23.0 mph37.0 kmh 29.66 in1004.4 mb 0.01 in0.3 mm 0.00 in0.0 mm 0.01 in0.3 mm
07:25 AM 61.7°F16.5°C 58.7°F14.8°C 90% 17.7 mph SSW28.5 kmh SSW 27.0 mph43.5 kmh 29.66 in1004.4 mb 0.01 in0.3 mm 0.00 in0.0 mm 0.01 in0.3 mm
07:20 AM 61.9°F16.6°C 58.6°F14.8°C 89% 17.7 mph SSW28.5 kmh SSW 27.0 mph43.5 kmh 29.65 in1004.1 mb 0.01 in0.3 mm 0.00 in0.0 mm 0.01 in0.3 mm
07:15 AM 62.2°F16.8°C 58.6°F14.8°C 88% 17.7 mph SSW28.5 kmh SSW 30.0 mph48.3 kmh 29.65 in1004.1 mb 0.01 in0.3 mm 0.00 in0.0 mm 0.01 in0.3 mm
07:10 AM 62.5°F16.9°C 58.9°F14.9°C 88% 18.9 mph SSW30.4 kmh SSW 30.0 mph48.3 kmh 29.65 in1004.1 mb 0.01 in0.3 mm 0.00 in0.0 mm 0.01 in0.3 mm
07:05 AM 62.5°F16.9°C 58.6°F14.8°C 87% 21.2 mph SSW34.1 kmh SSW 30.0 mph48.3 kmh 29.64 in1003.7 mb 0.01 in0.3 mm 0.00 in0.0 mm 0.01 in0.3 mm
07:00 AM 62.4°F16.9°C 58.8°F14.9°C 88% 21.2 mph SSW34.1 kmh SSW 30.0 mph48.3 kmh 29.63 in1003.4 mb 0.01 in0.3 mm 0.00 in0.0 mm 0.01 in0.3 mm
06:55 AM 62.2°F16.8°C 58.9°F14.9°C 89% 17.7 mph SSW28.5 kmh SSW 29.0 mph46.7 kmh 29.63 in1003.4 mb 0.01 in0.3 mm 0.00 in0.0 mm 0.01 in0.3 mm
06:50 AM 62.3°F16.8°C 59.3°F15.2°C 90% 17.7 mph SSW28.5 kmh SSW 30.0 mph48.3 kmh 29.63 in1003.4 mb 0.01 in0.3 mm 0.00 in0.0 mm 0.01 in0.3 mm
06:45 AM 62.5°F16.9°C 59.5°F15.3°C 90% 17.7 mph SSW28.5 kmh SSW 30.0 mph48.3 kmh 29.63 in1003.4 mb 0.01 in0.3 mm 0.12 in3.0 mm 0.01 in0.3 mm
06:40 AM 62.7°F17.1°C 59.7°F15.4°C 90% 17.7 mph SSW28.5 kmh SSW 31.0 mph49.9 kmh 29.62 in1003.0 mb 0.00 in0.0 mm 0.00 in0.0 mm 0.00 in0.0 mm
06:35 AM 62.8°F17.1°C 59.5°F15.3°C 89% 18.9 mph SSW30.4 kmh SSW 31.0 mph49.9 kmh 29.62 in1003.0 mb 0.00 in0.0 mm 0.00 in0.0 mm 0.00 in0.0 mm
06:30 AM 62.8°F17.1°C 59.5°F15.3°C 89% 18.9 mph SSW30.4 kmh SSW 29.0 mph46.7 kmh 29.62 in1003.0 mb 0.00 in0.0 mm 0.00 in0.0 mm 0.00 in0.0 mm
06:25 AM 63.0°F17.2°C 59.7°F15.4°C 89% 17.7 mph SSW28.5 kmh SSW 28.0 mph45.1 kmh 29.62 in1003.0 mb 0.00 in0.0 mm 0.00 in0.0 mm 0.00 in0.0 mm
06:20 AM 63.1°F17.3°C 59.8°F15.4°C 89% 16.5 mph SSW26.6 kmh SSW 31.0 mph49.9 kmh 29.62 in1003.0 mb 0.00 in0.0 mm 0.00 in0.0 mm 0.00 in0.0 mm
06:15 AM 63.2°F17.3°C 59.9°F15.5°C 89% 16.5 mph SSW26.6 kmh SSW 31.0 mph49.9 kmh 29.62 in1003.0 mb 0.00 in0.0 mm 0.00 in0.0 mm 0.00 in0.0 mm
06:10 AM 63.3°F17.4°C 60.0°F15.6°C 89% 15.3 mph SSW24.6 kmh SSW 24.0 mph38.6 kmh 29.61 in1002.7 mb 0.00 in0.0 mm 0.00 in0.0 mm 0.00 in0.0 mm
06:05 AM 63.5°F17.5°C 59.9°F15.5°C 88% 13.0 mph SSW20.9 kmh SSW 25.0 mph40.2 kmh 29.61 in1002.7 mb 0.00 in0.0 mm 0.00 in0.0 mm 0.00 in0.0 mm
06:00 AM 63.7°F17.6°C 60.1°F15.6°C 88% 13.0 mph SSW20.9 kmh SSW 25.0 mph40.2 kmh 29.61 in1002.7 mb 0.00 in0.0 mm 0.00 in0.0 mm 0.00 in0.0 mm
05:55 AM 63.8°F17.7°C 59.9°F15.5°C 87% 13.0 mph SSW20.9 kmh SSW 23.0 mph37.0 kmh 29.60 in1002.4 mb 0.00 in0.0 mm 0.00 in0.0 mm 0.00 in0.0 mm
05:50 AM 64.0°F17.8°C 59.7°F15.4°C 86% 13.0 mph SSW20.9 kmh SSW 23.0 mph37.0 kmh 29.60 in1002.4 mb 0.00 in0.0 mm 0.00 in0.0 mm 0.00 in0.0 mm
05:45 AM 64.3°F17.9°C 60.0°F15.6°C 86% 13.0 mph SSW20.9 kmh SSW 20.0 mph32.2 kmh 29.59 in1002.0 mb 0.00 in0.0 mm 0.00 in0.0 mm 0.00 in0.0 mm
05:40 AM 64.6°F18.1°C 60.0°F15.6°C 85% 13.0 mph SSW20.9 kmh SSW 23.0 mph37.0 kmh 29.59 in1002.0 mb 0.00 in0.0 mm 0.00 in0.0 mm 0.00 in0.0 mm
05:35 AM 64.8°F18.2°C 59.9°F15.5°C 84% 13.0 mph S20.9 kmh S 23.0 mph37.0 kmh 29.59 in1002.0 mb 0.00 in0.0 mm 0.00 in0.0 mm 0.00 in0.0 mm
05:30 AM 64.8°F18.2°C 59.9°F15.5°C 84% 11.8 mph S19.0 kmh S 20.0 mph32.2 kmh 29.59 in1002.0 mb 0.00 in0.0 mm 0.00 in0.0 mm 0.00 in0.0 mm
05:25 AM 64.8°F18.2°C 59.9°F15.5°C 84% 10.6 mph S17.1 kmh S 21.0 mph33.8 kmh 29.59 in1002.0 mb 0.00 in0.0 mm 0.00 in0.0 mm 0.00 in0.0 mm
05:20 AM 64.7°F18.2°C 59.8°F15.4°C 84% 13.0 mph S20.9 kmh S 21.0 mph33.8 kmh 29.59 in1002.0 mb 0.00 in0.0 mm 0.00 in0.0 mm 0.00 in0.0 mm
05:15 AM 64.8°F18.2°C 59.9°F15.5°C 84% 13.0 mph S20.9 kmh S 18.0 mph29.0 kmh 29.58 in1001.7 mb 0.00 in0.0 mm 0.00 in0.0 mm 0.00 in0.0 mm
05:10 AM 64.9°F18.3°C 59.9°F15.5°C 84% 13.0 mph S20.9 kmh S 25.0 mph40.2 kmh 29.58 in1001.7 mb 0.00 in0.0 mm 0.00 in0.0 mm 0.00 in0.0 mm
05:05 AM 65.1°F18.4°C 59.8°F15.4°C 83% 13.0 mph S20.9 kmh S 25.0 mph40.2 kmh 29.58 in1001.7 mb 0.00 in0.0 mm 0.00 in0.0 mm 0.00 in0.0 mm
05:00 AM 65.4°F18.6°C 59.8°F15.4°C 82% 13.0 mph S20.9 kmh S 22.0 mph35.4 kmh 29.57 in1001.4 mb 0.00 in0.0 mm 0.00 in0.0 mm 0.00 in0.0 mm
04:55 AM 65.5°F18.6°C 59.9°F15.5°C 82% 13.0 mph S20.9 kmh S 22.0 mph35.4 kmh 29.57 in1001.4 mb 0.00 in0.0 mm 0.00 in0.0 mm 0.00 in0.0 mm
04:50 AM 65.6°F18.7°C 59.6°F15.3°C 81% 11.8 mph S19.0 kmh S 19.0 mph30.6 kmh 29.57 in1001.4 mb 0.00 in0.0 mm 0.00 in0.0 mm 0.00 in0.0 mm
04:45 AM 65.6°F18.7°C 59.6°F15.3°C 81% 13.0 mph S20.9 kmh S 21.0 mph33.8 kmh 29.57 in1001.4 mb 0.00 in0.0 mm 0.00 in0.0 mm 0.00 in0.0 mm
04:40 AM 65.6°F18.7°C 59.6°F15.3°C 81% 13.0 mph S20.9 kmh S 21.0 mph33.8 kmh 29.57 in1001.4 mb 0.00 in0.0 mm 0.00 in0.0 mm 0.00 in0.0 mm
04:35 AM 65.5°F18.6°C 59.9°F15.5°C 82% 13.0 mph S20.9 kmh S 25.0 mph40.2 kmh 29.56 in1001.0 mb 0.00 in0.0 mm 0.00 in0.0 mm 0.00 in0.0 mm
04:30 AM 65.4°F18.6°C 59.8°F15.4°C 82% 13.0 mph S20.9 kmh S 28.0 mph45.1 kmh 29.57 in1001.4 mb 0.00 in0.0 mm 0.00 in0.0 mm 0.00 in0.0 mm
04:25 AM 65.5°F18.6°C 59.9°F15.5°C 82% 14.2 mph S22.9 kmh S 28.0 mph45.1 kmh 29.57 in1001.4 mb 0.00 in0.0 mm 0.00 in0.0 mm 0.00 in0.0 mm
04:20 AM 65.5°F18.6°C 59.9°F15.5°C 82% 14.2 mph S22.9 kmh S 24.0 mph38.6 kmh 29.57 in1001.4 mb 0.00 in0.0 mm 0.00 in0.0 mm 0.00 in0.0 mm
04:15 AM 65.5°F18.6°C 59.9°F15.5°C 82% 15.3 mph S24.6 kmh S 28.0 mph45.1 kmh 29.56 in1001.0 mb 0.00 in0.0 mm 0.00 in0.0 mm 0.00 in0.0 mm
04:10 AM 65.6°F18.7°C 60.0°F15.6°C 82% 14.2 mph S22.9 kmh S 30.0 mph48.3 kmh 29.56 in1001.0 mb 0.00 in0.0 mm 0.00 in0.0 mm 0.00 in0.0 mm
04:05 AM 65.7°F18.7°C 60.1°F15.6°C 82% 13.0 mph S20.9 kmh S 30.0 mph48.3 kmh 29.56 in1001.0 mb 0.00 in0.0 mm 0.00 in0.0 mm 0.00 in0.0 mm
04:00 AM 65.7°F18.7°C 60.1°F15.6°C 82% 14.2 mph S22.9 kmh S 26.0 mph41.8 kmh 29.56 in1001.0 mb 0.00 in0.0 mm 0.00 in0.0 mm 0.00 in0.0 mm
03:55 AM 65.8°F18.8°C 60.2°F15.7°C 82% 15.3 mph S24.6 kmh S 28.0 mph45.1 kmh 29.56 in1001.0 mb 0.00 in0.0 mm 0.00 in0.0 mm 0.00 in0.0 mm
03:50 AM 65.8°F18.8°C 60.2°F15.7°C 82% 15.3 mph S24.6 kmh S 28.0 mph45.1 kmh 29.57 in1001.4 mb 0.00 in0.0 mm 0.00 in0.0 mm 0.00 in0.0 mm
03:45 AM 65.9°F18.8°C 60.2°F15.7°C 82% 14.2 mph S22.9 kmh S 27.0 mph43.5 kmh 29.57 in1001.4 mb 0.00 in0.0 mm 0.00 in0.0 mm 0.00 in0.0 mm
03:40 AM 65.9°F18.8°C 60.2°F15.7°C 82% 14.2 mph S22.9 kmh S 27.0 mph43.5 kmh 29.56 in1001.0 mb 0.00 in0.0 mm 0.00 in0.0 mm 0.00 in0.0 mm
03:35 AM 65.9°F18.8°C 60.2°F15.7°C 82% 15.3 mph S24.6 kmh S 27.0 mph43.5 kmh 29.56 in1001.0 mb 0.00 in0.0 mm 0.00 in0.0 mm 0.00 in0.0 mm
03:30 AM 66.0°F18.9°C 60.3°F15.7°C 82% 16.5 mph S26.6 kmh S 28.0 mph45.1 kmh 29.56 in1001.0 mb 0.00 in0.0 mm 0.00 in0.0 mm 0.00 in0.0 mm
03:25 AM 66.1°F18.9°C 60.4°F15.8°C 82% 16.5 mph S26.6 kmh S 37.0 mph59.5 kmh 29.56 in1001.0 mb 0.00 in0.0 mm 0.00 in0.0 mm 0.00 in0.0 mm
03:20 AM 66.1°F18.9°C 60.4°F15.8°C 82% 14.2 mph S22.9 kmh S 37.0 mph59.5 kmh 29.57 in1001.4 mb 0.00 in0.0 mm 0.00 in0.0 mm 0.00 in0.0 mm
03:15 AM 66.2°F19.0°C 60.5°F15.8°C 82% 14.2 mph S22.9 kmh S 28.0 mph45.1 kmh 29.57 in1001.4 mb 0.00 in0.0 mm 0.00 in0.0 mm 0.00 in0.0 mm
03:10 AM 66.4°F19.1°C 60.7°F15.9°C 82% 15.3 mph S24.6 kmh S 28.0 mph45.1 kmh 29.57 in1001.4 mb 0.00 in0.0 mm 0.00 in0.0 mm 0.00 in0.0 mm
03:05 AM 66.5°F19.2°C 60.5°F15.8°C 81% 16.5 mph S26.6 kmh S 28.0 mph45.1 kmh 29.57 in1001.4 mb 0.00 in0.0 mm 0.00 in0.0 mm 0.00 in0.0 mm
03:00 AM 66.6°F19.2°C 60.6°F15.9°C 81% 14.2 mph S22.9 kmh S 27.0 mph43.5 kmh 29.57 in1001.4 mb 0.00 in0.0 mm 0.00 in0.0 mm 0.00 in0.0 mm
02:55 AM 66.6°F19.2°C 60.6°F15.9°C 81% 13.0 mph S20.9 kmh S 27.0 mph43.5 kmh 29.57 in1001.4 mb 0.00 in0.0 mm 0.00 in0.0 mm 0.00 in0.0 mm
02:50 AM 66.7°F19.3°C 60.7°F15.9°C 81% 13.0 mph S20.9 kmh S 27.0 mph43.5 kmh 29.57 in1001.4 mb 0.00 in0.0 mm 0.00 in0.0 mm 0.00 in0.0 mm
02:45 AM 66.8°F19.3°C 60.8°F16.0°C 81% 11.8 mph S19.0 kmh S 27.0 mph43.5 kmh 29.57 in1001.4 mb 0.00 in0.0 mm 0.00 in0.0 mm 0.00 in0.0 mm
02:40 AM 66.8°F19.3°C 60.4°F15.8°C 80% 11.8 mph S19.0 kmh S 27.0 mph43.5 kmh 29.57 in1001.4 mb 0.00 in0.0 mm 0.00 in0.0 mm 0.00 in0.0 mm
02:35 AM 67.0°F19.4°C 60.6°F15.9°C 80% 14.2 mph S22.9 kmh S 29.0 mph46.7 kmh 29.58 in1001.7 mb 0.00 in0.0 mm 0.00 in0.0 mm 0.00 in0.0 mm
02:30 AM 67.1°F19.5°C 60.7°F15.9°C 80% 15.3 mph S24.6 kmh S 29.0 mph46.7 kmh 29.58 in1001.7 mb 0.00 in0.0 mm 0.00 in0.0 mm 0.00 in0.0 mm
02:25 AM 67.1°F19.5°C 60.4°F15.8°C 79% 14.2 mph S22.9 kmh S 27.0 mph43.5 kmh 29.58 in1001.7 mb 0.00 in0.0 mm 0.00 in0.0 mm 0.00 in0.0 mm
02:20 AM 67.1°F19.5°C 60.4°F15.8°C 79% 14.2 mph S22.9 kmh S 27.0 mph43.5 kmh 29.58 in1001.7 mb 0.00 in0.0 mm 0.00 in0.0 mm 0.00 in0.0 mm
02:15 AM 67.1°F19.5°C 60.4°F15.8°C 79% 11.8 mph S19.0 kmh S 23.0 mph37.0 kmh 29.58 in1001.7 mb 0.00 in0.0 mm 0.00 in0.0 mm 0.00 in0.0 mm
02:10 AM 67.1°F19.5°C 60.4°F15.8°C 79% 11.8 mph S19.0 kmh S 30.0 mph48.3 kmh 29.59 in1002.0 mb 0.00 in0.0 mm 0.00 in0.0 mm 0.00 in0.0 mm
02:05 AM 67.1°F19.5°C 60.4°F15.8°C 79% 13.0 mph S20.9 kmh S 30.0 mph48.3 kmh 29.59 in1002.0 mb 0.00 in0.0 mm 0.00 in0.0 mm 0.00 in0.0 mm
02:00 AM 67.1°F19.5°C 60.4°F15.8°C 79% 14.2 mph S22.9 kmh S 24.0 mph38.6 kmh 29.59 in1002.0 mb 0.00 in0.0 mm 0.00 in0.0 mm 0.00 in0.0 mm
01:55 AM 67.0°F19.4°C 60.3°F15.7°C 79% 14.2 mph S22.9 kmh S 25.0 mph40.2 kmh 29.60 in1002.4 mb 0.00 in0.0 mm 0.00 in0.0 mm 0.00 in0.0 mm
01:50 AM 66.7°F19.3°C 60.3°F15.7°C 80% 13.0 mph S20.9 kmh S 28.0 mph45.1 kmh 29.60 in1002.4 mb 0.00 in0.0 mm 0.00 in0.0 mm 0.00 in0.0 mm
01:45 AM 66.2°F19.0°C 60.2°F15.7°C 81% 9.4 mph S15.1 kmh S 28.0 mph45.1 kmh 29.60 in1002.4 mb 0.00 in0.0 mm 0.00 in0.0 mm 0.00 in0.0 mm
01:40 AM 65.3°F18.5°C 59.7°F15.4°C 82% 7.1 mph S11.4 kmh S 18.0 mph29.0 kmh 29.60 in1002.4 mb 0.00 in0.0 mm 0.00 in0.0 mm 0.00 in0.0 mm
01:35 AM 65.0°F18.3°C 59.7°F15.4°C 83% 7.1 mph SSE11.4 kmh SSE 16.0 mph25.7 kmh 29.60 in1002.4 mb 0.00 in0.0 mm 0.00 in0.0 mm 0.00 in0.0 mm
01:30 AM 64.6°F18.1°C 59.3°F15.2°C 83% 8.3 mph SSE13.4 kmh SSE 14.0 mph22.5 kmh 29.60 in1002.4 mb 0.00 in0.0 mm 0.00 in0.0 mm 0.00 in0.0 mm
01:25 AM 64.5°F18.1°C 59.2°F15.1°C 83% 8.3 mph SSE13.4 kmh SSE 15.0 mph24.1 kmh 29.61 in1002.7 mb 0.00 in0.0 mm 0.00 in0.0 mm 0.00 in0.0 mm
01:20 AM 64.2°F17.9°C 58.9°F14.9°C 83% 7.1 mph SSE11.4 kmh SSE 15.0 mph24.1 kmh 29.61 in1002.7 mb 0.00 in0.0 mm 0.00 in0.0 mm 0.00 in0.0 mm
01:15 AM 64.1°F17.8°C 58.8°F14.9°C 83% 7.1 mph SSE11.4 kmh SSE 17.0 mph27.4 kmh 29.62 in1003.0 mb 0.00 in0.0 mm 0.00 in0.0 mm 0.00 in0.0 mm
01:10 AM 63.9°F17.7°C 58.6°F14.8°C 83% 8.3 mph SSE13.4 kmh SSE 17.0 mph27.4 kmh 29.62 in1003.0 mb 0.00 in0.0 mm 0.00 in0.0 mm 0.00 in0.0 mm
01:05 AM 63.7°F17.6°C 58.1°F14.5°C 82% 7.1 mph SSE11.4 kmh SSE 16.0 mph25.7 kmh 29.62 in1003.0 mb 0.00 in0.0 mm 0.00 in0.0 mm 0.00 in0.0 mm
01:00 AM 63.6°F17.6°C 58.0°F14.4°C 82% 7.1 mph SSE11.4 kmh SSE 16.0 mph25.7 kmh 29.62 in1003.0 mb 0.00 in0.0 mm 0.00 in0.0 mm 0.00 in0.0 mm
12:55 AM 63.6°F17.6°C 57.7°F14.3°C 81% 8.3 mph SSE13.4 kmh SSE 17.0 mph27.4 kmh 29.63 in1003.4 mb 0.00 in0.0 mm 0.00 in0.0 mm 0.00 in0.0 mm
12:50 AM 63.6°F17.6°C 57.3°F14.1°C 80% 8.3 mph SSE13.4 kmh SSE 17.0 mph27.4 kmh 29.63 in1003.4 mb 0.00 in0.0 mm 0.00 in0.0 mm 0.00 in0.0 mm
12:45 AM 63.6°F17.6°C 57.3°F14.1°C 80% 8.3 mph SSE13.4 kmh SSE 17.0 mph27.4 kmh 29.63 in1003.4 mb 0.00 in0.0 mm 0.00 in0.0 mm 0.00 in0.0 mm
12:40 AM 63.5°F17.5°C 57.2°F14.0°C 80% 8.3 mph SSE13.4 kmh SSE 19.0 mph30.6 kmh 29.63 in1003.4 mb 0.00 in0.0 mm 0.00 in0.0 mm 0.00 in0.0 mm
12:35 AM 63.5°F17.5°C 56.9°F13.8°C 79% 8.3 mph SSE13.4 kmh SSE 19.0 mph30.6 kmh 29.63 in1003.4 mb 0.00 in0.0 mm 0.00 in0.0 mm 0.00 in0.0 mm
12:30 AM 63.5°F17.5°C 56.9°F13.8°C 79% 8.3 mph SSE13.4 kmh SSE 15.0 mph24.1 kmh 29.64 in1003.7 mb 0.00 in0.0 mm 0.00 in0.0 mm 0.00 in0.0 mm
12:25 AM 63.4°F17.4°C 56.8°F13.8°C 79% 9.4 mph SSE15.1 kmh SSE 16.0 mph25.7 kmh 29.64 in1003.7 mb 0.00 in0.0 mm 0.00 in0.0 mm 0.00 in0.0 mm
12:20 AM 63.2°F17.3°C 56.2°F13.4°C 78% 8.3 mph SSE13.4 kmh SSE 16.0 mph25.7 kmh 29.64 in1003.7 mb 0.00 in0.0 mm 0.00 in0.0 mm 0.00 in0.0 mm
12:15 AM 63.0°F17.2°C 56.0°F13.3°C 78% 7.1 mph SSE11.4 kmh SSE 14.0 mph22.5 kmh 29.64 in1003.7 mb 0.00 in0.0 mm 0.00 in0.0 mm 0.00 in0.0 mm
12:10 AM 63.0°F17.2°C 56.0°F13.3°C 78% 7.1 mph SSE11.4 kmh SSE 14.0 mph22.5 kmh 29.65 in1004.1 mb 0.00 in0.0 mm 0.00 in0.0 mm 0.00 in0.0 mm
12:05 AM 62.9°F17.2°C 55.9°F13.3°C 78% 7.1 mph SSE11.4 kmh SSE 12.0 mph19.3 kmh 29.66 in1004.4 mb 0.00 in0.0 mm 0.00 in0.0 mm 0.00 in0.0 mm
12:00 AM 62.8°F17.1°C 55.8°F13.2°C 78% 5.9 mph SSE9.5 kmh SSE 12.0 mph19.3 kmh 29.66 in1004.4 mb 0.00 in0.0 mm 0.00 in0.0 mm 0.00 in0.0 mm